Time;durP1;ratioP1;P1;durP2;ratioP2;P2;SDS_P1;SDS_P2;PMS_P1;PMS_P2;Temp;Humidity;BMP_temperature;BMP_pressure;BME280_temperature;BME280_humidity;BME280_pressure;Samples;Min_cycle;Max_cycle;Signal;HPM_P1;HPM_P2
2022/10/31 00:02:11;;;;;;;11.25;6.75;;;11.60;99.90;;;;;;5076345;28;20170;-67
2022/10/31 00:04:36;;;;;;;11.68;7.05;;;11.70;99.90;;;;;;5075434;28;20161;-67
2022/10/31 00:07:02;;;;;;;12.80;7.40;;;11.70;99.90;;;;;;5076513;28;20201;-67
2022/10/31 00:09:28;;;;;;;11.10;6.50;;;11.80;99.90;;;;;;5075178;28;20224;-67
2022/10/31 00:11:53;;;;;;;13.35;6.72;;;11.80;99.90;;;;;;5075192;28;20264;-67
2022/10/31 00:14:19;;;;;;;14.48;7.03;;;11.80;99.90;;;;;;5075198;28;20166;-67
2022/10/31 00:16:45;;;;;;;14.45;7.15;;;11.80;99.90;;;;;;5074872;28;20686;-67
2022/10/31 00:19:10;;;;;;;13.43;6.70;;;11.80;99.90;;;;;;5074907;28;20536;-67
2022/10/31 00:21:36;;;;;;;11.55;6.72;;;11.80;99.90;;;;;;5075271;28;20173;-67
2022/10/31 00:24:03;;;;;;;15.75;7.78;;;11.80;99.90;;;;;;5074908;28;20545;-67
2022/10/31 00:26:29;;;;;;;14.70;6.78;;;11.80;99.90;;;;;;5073428;28;20205;-67
2022/10/31 00:28:56;;;;;;;11.70;7.07;;;11.80;99.90;;;;;;5074898;28;20174;-67
2022/10/31 00:31:21;;;;;;;14.48;6.05;;;11.80;99.90;;;;;;5074845;28;20233;-67
2022/10/31 00:33:47;;;;;;;9.68;6.80;;;11.90;99.90;;;;;;5074490;28;20257;-67
2022/10/31 00:36:16;;;;;;;11.45;7.20;;;11.90;99.90;;;;;;5074667;28;20722;-67
2022/10/31 00:38:43;;;;;;;11.93;7.13;;;11.90;99.90;;;;;;5074753;28;20630;-67
2022/10/31 00:41:10;;;;;;;13.75;6.85;;;12.00;99.90;;;;;;5074469;28;20214;-67
2022/10/31 00:43:35;;;;;;;10.25;7.05;;;12.00;99.90;;;;;;5074316;28;20182;-67
2022/10/31 00:46:01;;;;;;;12.35;6.90;;;12.00;99.90;;;;;;5073496;28;20210;-67
2022/10/31 00:48:27;;;;;;;12.48;7.00;;;11.90;99.90;;;;;;5074839;28;20711;-67
2022/10/31 00:50:52;;;;;;;11.57;7.03;;;11.90;99.90;;;;;;5074289;28;20173;-67
2022/10/31 00:53:18;;;;;;;10.65;6.65;;;11.90;99.90;;;;;;5074546;28;20185;-67
2022/10/31 00:55:44;;;;;;;12.32;6.70;;;11.90;99.90;;;;;;5074158;28;20247;-67
2022/10/31 00:58:10;;;;;;;10.80;7.18;;;11.90;99.90;;;;;;5074241;28;20231;-67
2022/10/31 01:00:35;;;;;;;13.45;7.20;;;11.90;99.90;;;;;;5072887;28;20562;-67
2022/10/31 01:03:01;;;;;;;13.20;7.03;;;11.90;99.90;;;;;;5074402;28;20176;-68
2022/10/31 01:05:27;;;;;;;15.00;7.03;;;11.90;99.90;;;;;;5072734;28;20256;-67
2022/10/31 01:07:53;;;;;;;10.32;7.45;;;11.90;99.90;;;;;;5074260;28;20586;-67
2022/10/31 01:10:18;;;;;;;10.25;6.45;;;11.80;99.90;;;;;;5074070;28;20174;-68
2022/10/31 01:12:46;;;;;;;11.63;6.70;;;11.70;99.90;;;;;;5072816;28;20185;-67
2022/10/31 01:15:15;;;;;;;11.25;6.15;;;11.80;99.90;;;;;;5074165;28;20197;-67
2022/10/31 01:17:41;;;;;;;12.45;6.55;;;11.80;99.90;;;;;;5073953;28;20174;-67
2022/10/31 01:20:08;;;;;;;9.52;6.28;;;11.80;99.90;;;;;;5073906;28;20541;-67
2022/10/31 01:22:34;;;;;;;10.43;6.68;;;11.80;99.90;;;;;;5072582;28;20181;-67
2022/10/31 01:25:00;;;;;;;18.45;6.70;;;11.80;99.90;;;;;;5073923;28;20202;-67
2022/10/31 01:27:25;;;;;;;10.32;6.57;;;11.80;99.90;;;;;;5073995;28;20178;-67
2022/10/31 01:29:51;;;;;;;10.90;6.57;;;11.80;99.90;;;;;;5074086;28;20166;-67
2022/10/31 01:32:17;;;;;;;9.50;6.50;;;11.90;99.90;;;;;;5073899;28;20248;-67
2022/10/31 01:34:42;;;;;;;9.57;5.88;;;11.90;99.90;;;;;;5073914;28;20296;-67
2022/10/31 01:37:08;;;;;;;15.48;7.15;;;12.00;99.90;;;;;;5072435;28;20181;-67
2022/10/31 01:39:34;;;;;;;8.13;6.65;;;12.00;99.90;;;;;;5073750;28;20526;-67
2022/10/31 01:42:00;;;;;;;13.88;6.28;;;12.00;99.90;;;;;;5074122;28;20239;-67
2022/10/31 01:44:26;;;;;;;11.95;6.45;;;12.10;99.90;;;;;;5073530;28;20251;-67
2022/10/31 01:47:06;;;;;;;13.90;6.28;;;12.10;99.90;;;;;;5073674;28;20243;-67
2022/10/31 01:49:41;;;;;;;10.63;6.13;;;12.00;99.90;;;;;;5073476;28;20240;-67
2022/10/31 01:52:37;;;;;;;14.90;6.50;;;12.00;99.90;;;;;;5073533;28;20149;-68
2022/10/31 01:55:06;;;;;;;9.68;6.35;;;12.00;99.90;;;;;;5073133;28;20211;-67
2022/10/31 01:57:34;;;;;;;12.02;6.88;;;12.00;99.90;;;;;;5071911;28;20170;-68
2022/10/31 02:00:05;;;;;;;11.05;6.65;;;12.00;99.90;;;;;;5073520;28;20165;-67
2022/10/31 02:02:32;;;;;;;12.15;7.00;;;12.10;99.90;;;;;;5073600;28;20630;-67
2022/10/31 02:05:01;;;;;;;14.43;7.15;;;12.10;99.90;;;;;;5073291;28;20203;-67
2022/10/31 02:07:33;;;;;;;11.15;7.00;;;12.10;99.90;;;;;;5073278;28;20166;-68
2022/10/31 02:10:01;;;;;;;14.05;8.07;;;12.10;99.90;;;;;;5073262;28;20161;-68
2022/10/31 02:12:30;;;;;;;12.40;7.43;;;12.10;99.90;;;;;;5073018;28;20231;-68
2022/10/31 02:14:55;;;;;;;10.82;7.13;;;12.20;99.90;;;;;;5073257;28;20745;-67
2022/10/31 02:17:21;;;;;;;16.48;7.35;;;12.20;99.90;;;;;;5073606;28;20194;-67
2022/10/31 02:19:53;;;;;;;13.88;7.30;;;12.20;99.90;;;;;;5073038;28;20166;-67
2022/10/31 02:22:29;;;;;;;11.63;6.88;;;12.20;99.90;;;;;;5073275;28;20617;-67
2022/10/31 02:25:21;;;;;;;15.27;6.90;;;12.20;99.90;;;;;;5073223;28;20193;-67
2022/10/31 02:28:05;;;;;;;9.30;6.70;;;12.20;99.90;;;;;;5073338;28;20627;-68
2022/10/31 02:30:52;;;;;;;10.75;6.70;;;12.20;99.90;;;;;;5073098;28;20205;-67
2022/10/31 02:33:31;;;;;;;13.27;6.28;;;12.10;99.90;;;;;;5073407;28;20200;-67
2022/10/31 02:36:21;;;;;;;15.57;6.22;;;12.10;99.90;;;;;;5073040;28;20293;-67
2022/10/31 02:38:47;;;;;;;9.48;6.40;;;12.10;99.90;;;;;;5071785;28;20227;-67
2022/10/31 02:41:19;;;;;;;12.23;6.70;;;12.00;99.90;;;;;;5072927;28;20178;-67
2022/10/31 02:43:48;;;;;;;11.60;6.13;;;12.00;99.90;;;;;;5072785;28;20253;-68
2022/10/31 02:46:24;;;;;;;10.10;6.05;;;12.00;99.90;;;;;;5072958;28;20263;-67
2022/10/31 02:48:57;;;;;;;9.13;6.55;;;11.90;99.90;;;;;;5072914;28;20257;-67
2022/10/31 02:51:23;;;;;;;9.98;5.57;;;11.90;99.90;;;;;;5073089;28;20241;-67
2022/10/31 02:53:48;;;;;;;10.32;6.65;;;11.80;99.90;;;;;;5072929;28;20173;-67
2022/10/31 02:56:17;;;;;;;9.98;6.95;;;11.80;99.90;;;;;;5072730;28;20194;-67
2022/10/31 02:58:50;;;;;;;11.52;7.00;;;11.70;99.90;;;;;;5072814;28;20170;-67
2022/10/31 03:01:22;;;;;;;13.32;7.47;;;11.70;99.90;;;;;;5072806;28;20194;-67
2022/10/31 03:03:50;;;;;;;12.02;7.05;;;11.70;99.90;;;;;;5072698;28;20159;-67
2022/10/31 03:06:31;;;;;;;13.63;7.82;;;11.70;99.90;;;;;;5072496;28;20202;-68
2022/10/31 03:09:17;;;;;;;14.35;7.53;;;11.70;99.90;;;;;;5072147;28;20177;-68
2022/10/31 03:11:51;;;;;;;12.25;7.28;;;11.70;99.90;;;;;;5076527;28;20526;-67
2022/10/31 03:14:28;;;;;;;11.88;7.07;;;11.60;99.90;;;;;;5076894;28;20237;-67
2022/10/31 03:16:57;;;;;;;11.25;6.93;;;11.60;99.90;;;;;;5076511;28;20170;-67
2022/10/31 03:19:28;;;;;;;11.73;7.15;;;11.50;99.90;;;;;;5075978;28;20181;-67
2022/10/31 03:22:12;;;;;;;9.77;7.40;;;11.50;99.90;;;;;;5076190;28;20158;-67
2022/10/31 03:24:40;;;;;;;14.15;7.55;;;11.40;99.90;;;;;;5076258;28;20158;-67
2022/10/31 03:27:09;;;;;;;12.25;8.27;;;11.40;99.90;;;;;;5076419;28;20205;-67
2022/10/31 03:29:37;;;;;;;12.70;7.10;;;11.30;99.90;;;;;;5075976;28;20173;-67
2022/10/31 03:32:29;;;;;;;16.00;8.10;;;11.30;99.90;;;;;;5075858;28;20702;-68
2022/10/31 03:34:59;;;;;;;15.38;7.80;;;11.30;99.90;;;;;;5075139;28;20686;-67
2022/10/31 03:37:29;;;;;;;10.43;7.63;;;11.30;99.90;;;;;;5076124;28;20162;-67
2022/10/31 03:39:57;;;;;;;16.05;7.80;;;11.20;99.90;;;;;;5075938;28;20150;-67
2022/10/31 03:42:25;;;;;;;13.98;8.38;;;11.30;99.90;;;;;;5075517;28;20257;-67
2022/10/31 03:45:14;;;;;;;10.57;7.10;;;11.20;99.90;;;;;;5075597;28;20280;-68
2022/10/31 03:47:43;;;;;;;12.98;7.80;;;11.30;99.90;;;;;;5075417;28;20178;-67
2022/10/31 03:50:10;;;;;;;13.27;7.80;;;11.40;99.90;;;;;;5075809;28;20546;-67
2022/10/31 03:52:47;;;;;;;15.25;7.50;;;11.40;99.90;;;;;;5075661;28;20186;-67
2022/10/31 03:55:42;;;;;;;12.25;7.95;;;11.40;99.90;;;;;;5075410;28;20204;-67
2022/10/31 03:58:29;;;;;;;13.05;8.10;;;11.50;99.90;;;;;;5075109;28;20221;-67
2022/10/31 04:00:57;;;;;;;14.23;7.97;;;11.50;99.90;;;;;;5075490;28;20169;-67
2022/10/31 04:03:28;;;;;;;14.13;7.80;;;11.50;99.90;;;;;;5073905;28;20177;-67
2022/10/31 04:05:58;;;;;;;15.85;7.80;;;11.50;99.90;;;;;;5077009;28;20217;-68
2022/10/31 04:08:30;;;;;;;14.40;8.13;;;11.50;99.90;;;;;;5075943;28;20264;-67
2022/10/31 04:10:57;;;;;;;13.57;8.20;;;11.50;99.90;;;;;;5075089;28;20170;-67
2022/10/31 04:13:31;;;;;;;14.93;8.05;;;11.60;99.90;;;;;;5073649;28;20185;-68
2022/10/31 04:15:57;;;;;;;13.80;9.27;;;11.60;99.90;;;;;;5074891;28;20190;-68
2022/10/31 04:18:24;;;;;;;18.50;8.10;;;11.60;99.90;;;;;;5074707;28;20178;-68
2022/10/31 04:20:58;;;;;;;16.60;8.73;;;11.70;99.90;;;;;;5074753;28;20182;-68
2022/10/31 04:23:26;;;;;;;18.05;7.78;;;11.70;99.90;;;;;;5075028;28;20161;-68
2022/10/31 04:25:52;;;;;;;16.30;8.75;;;11.60;99.90;;;;;;5074577;28;20271;-68
2022/10/31 04:28:18;;;;;;;14.10;8.35;;;11.60;99.90;;;;;;5074614;28;20174;-68
2022/10/31 04:30:43;;;;;;;16.48;8.52;;;11.60;99.90;;;;;;5074690;28;20261;-68
2022/10/31 04:33:09;;;;;;;12.73;8.23;;;11.50;99.90;;;;;;5074475;28;20611;-67
2022/10/31 04:35:35;;;;;;;11.50;8.05;;;11.60;99.90;;;;;;5074521;28;20216;-68
2022/10/31 04:38:01;;;;;;;16.33;9.18;;;11.60;99.90;;;;;;5073153;28;20174;-67
2022/10/31 04:40:27;;;;;;;15.73;7.50;;;11.60;99.90;;;;;;5073171;28;20173;-67
2022/10/31 04:42:53;;;;;;;14.13;7.88;;;11.50;99.90;;;;;;5074396;28;20188;-68
2022/10/31 04:45:18;;;;;;;11.38;8.30;;;11.50;99.90;;;;;;5074198;28;20210;-68
2022/10/31 04:47:44;;;;;;;14.68;8.50;;;11.40;99.90;;;;;;5074239;28;20202;-67
2022/10/31 04:50:10;;;;;;;12.15;7.88;;;11.40;99.90;;;;;;5072934;28;20170;-67
2022/10/31 04:52:39;;;;;;;15.05;8.10;;;11.30;99.90;;;;;;5074472;28;20177;-67
2022/10/31 04:55:05;;;;;;;14.68;7.88;;;11.30;99.90;;;;;;5074087;28;20255;-67
2022/10/31 04:57:31;;;;;;;13.32;8.18;;;11.20;99.90;;;;;;5074084;28;20169;-67
2022/10/31 04:59:57;;;;;;;17.67;8.88;;;11.20;99.90;;;;;;5072814;28;20646;-68
2022/10/31 05:02:22;;;;;;;13.25;8.60;;;11.20;99.90;;;;;;5074044;28;20177;-67
2022/10/31 05:04:48;;;;;;;17.60;9.90;;;11.20;99.90;;;;;;5073708;28;20561;-68
2022/10/31 05:07:14;;;;;;;18.00;9.43;;;11.20;99.90;;;;;;5073948;28;20202;-67
2022/10/31 05:09:39;;;;;;;14.40;9.93;;;11.30;99.90;;;;;;5074292;28;20165;-68
2022/10/31 05:12:05;;;;;;;18.05;10.05;;;11.30;99.90;;;;;;5073930;28;20209;-67
2022/10/31 05:14:31;;;;;;;13.45;9.82;;;11.30;99.90;;;;;;5074394;28;20180;-68
2022/10/31 05:16:57;;;;;;;21.98;9.68;;;11.20;99.90;;;;;;5078653;28;20223;-68
2022/10/31 05:19:22;;;;;;;16.95;9.93;;;11.30;99.90;;;;;;5081400;28;20174;-68
2022/10/31 05:21:48;;;;;;;18.15;9.23;;;11.30;99.90;;;;;;5075350;28;20557;-67
2022/10/31 05:24:14;;;;;;;19.40;10.10;;;11.20;99.90;;;;;;5074227;28;20181;-67
2022/10/31 05:26:39;;;;;;;13.82;9.45;;;11.10;99.90;;;;;;5072355;28;20270;-67
2022/10/31 05:29:05;;;;;;;20.77;9.65;;;11.10;99.90;;;;;;5073997;28;20694;-68
2022/10/31 05:31:31;;;;;;;19.08;9.45;;;11.10;99.90;;;;;;5072192;28;20185;-68
2022/10/31 05:33:56;;;;;;;17.05;9.55;;;11.00;99.90;;;;;;5073707;28;20680;-67
2022/10/31 05:36:22;;;;;;;15.55;9.32;;;10.90;99.90;;;;;;5074032;28;20240;-67
2022/10/31 05:38:48;;;;;;;20.50;9.53;;;10.90;99.90;;;;;;5073738;28;20202;-68
2022/10/31 05:41:13;;;;;;;17.00;8.90;;;10.80;99.90;;;;;;5073641;28;20611;-67
2022/10/31 05:43:39;;;;;;;17.20;9.07;;;10.80;99.90;;;;;;5073713;28;20188;-68
2022/10/31 05:46:05;;;;;;;15.27;8.50;;;10.80;99.90;;;;;;5074020;28;20274;-68
2022/10/31 05:48:30;;;;;;;14.95;9.82;;;10.80;99.90;;;;;;5073392;28;20205;-67
2022/10/31 05:50:56;;;;;;;19.07;10.00;;;10.80;99.90;;;;;;5073471;28;20208;-68
2022/10/31 05:53:22;;;;;;;16.60;9.20;;;10.70;99.90;;;;;;5072171;28;20281;-67
2022/10/31 05:55:47;;;;;;;14.43;9.38;;;10.70;99.90;;;;;;5073867;28;20205;-67
2022/10/31 05:58:13;;;;;;;15.93;9.07;;;10.70;99.90;;;;;;5074609;28;20185;-67
2022/10/31 06:00:39;;;;;;;21.00;8.97;;;10.70;99.90;;;;;;5073947;28;20182;-67
2022/10/31 06:03:06;;;;;;;16.07;10.00;;;10.60;99.90;;;;;;5073543;28;20185;-67
2022/10/31 06:05:32;;;;;;;17.23;9.47;;;10.60;99.90;;;;;;5073351;28;20205;-67
2022/10/31 06:07:58;;;;;;;13.57;9.13;;;10.60;99.90;;;;;;5071908;28;20182;-67
2022/10/31 06:10:24;;;;;;;14.27;8.87;;;10.60;99.90;;;;;;5073468;28;20181;-67
2022/10/31 06:12:50;;;;;;;15.60;9.40;;;10.60;99.90;;;;;;5073296;28;20707;-67
2022/10/31 06:15:16;;;;;;;17.83;9.03;;;10.60;99.90;;;;;;5073108;28;20225;-67
2022/10/31 06:17:43;;;;;;;14.70;9.07;;;10.60;99.90;;;;;;5073227;28;20178;-67
2022/10/31 06:20:09;;;;;;;16.83;9.65;;;10.60;99.90;;;;;;5073269;28;20173;-67
2022/10/31 06:22:35;;;;;;;17.47;9.37;;;10.60;99.90;;;;;;5073124;28;20174;-67
2022/10/31 06:25:00;;;;;;;17.17;9.73;;;10.60;99.90;;;;;;5073017;28;20567;-67
2022/10/31 06:27:26;;;;;;;14.23;9.73;;;10.50;99.90;;;;;;5073234;28;20208;-68
2022/10/31 06:29:52;;;;;;;17.90;9.67;;;10.40;99.90;;;;;;5073428;28;20166;-68
2022/10/31 06:32:18;;;;;;;17.97;9.87;;;10.40;99.90;;;;;;5073038;28;20182;-68
2022/10/31 06:34:47;;;;;;;15.47;9.27;;;10.40;99.90;;;;;;5072669;28;20228;-68
2022/10/31 06:37:14;;;;;;;17.50;9.90;;;10.40;99.90;;;;;;5072792;28;20181;-68
2022/10/31 06:39:40;;;;;;;15.40;9.83;;;10.40;99.90;;;;;;5072940;28;20605;-68
2022/10/31 06:42:06;;;;;;;13.73;8.97;;;10.40;99.90;;;;;;5071753;28;20228;-68
2022/10/31 06:44:32;;;;;;;14.27;8.90;;;10.40;99.90;;;;;;5072962;28;20266;-68
2022/10/31 06:46:57;;;;;;;14.50;9.00;;;10.50;99.90;;;;;;5076783;28;20659;-68
2022/10/31 06:49:23;;;;;;;20.20;10.33;;;10.50;99.90;;;;;;5076562;28;20188;-68
2022/10/31 06:51:50;;;;;;;18.13;9.70;;;10.50;99.90;;;;;;5075167;28;20185;-68
2022/10/31 06:54:16;;;;;;;17.83;10.07;;;10.50;99.90;;;;;;5076459;28;20186;-68
2022/10/31 06:56:42;;;;;;;18.40;10.40;;;10.60;99.90;;;;;;5076264;28;20200;-68
2022/10/31 06:59:08;;;;;;;19.55;9.15;;;10.60;99.90;;;;;;5076355;28;20635;-68
2022/10/31 07:01:33;;;;;;;18.93;9.60;;;10.70;99.90;;;;;;5076229;28;20195;-68
2022/10/31 07:03:59;;;;;;;15.93;9.20;;;10.70;99.90;;;;;;5076295;28;20220;-68
2022/10/31 07:06:25;;;;;;;20.25;10.35;;;10.70;99.90;;;;;;5076189;28;20205;-68
2022/10/31 07:08:51;;;;;;;19.97;11.20;;;10.70;99.90;;;;;;5076270;28;20186;-68
2022/10/31 07:11:16;;;;;;;20.57;12.20;;;10.70;99.90;;;;;;5076340;28;20177;-68
2022/10/31 07:13:42;;;;;;;20.43;12.13;;;10.70;99.90;;;;;;5076091;28;20201;-68
2022/10/31 07:16:10;;;;;;;21.77;10.80;;;10.70;99.90;;;;;;5076116;28;20203;-68
2022/10/31 07:18:36;;;;;;;19.83;12.27;;;10.70;99.90;;;;;;5074544;28;20190;-68
2022/10/31 07:21:02;;;;;;;19.03;11.07;;;10.80;99.90;;;;;;5074738;28;20694;-68
2022/10/31 07:23:27;;;;;;;18.07;10.07;;;10.80;99.90;;;;;;5076237;28;20360;-68
2022/10/31 07:25:57;;;;;;;14.53;9.63;;;10.80;99.90;;;;;;5075785;28;20568;-68
2022/10/31 07:28:23;;;;;;;14.80;9.53;;;10.80;99.90;;;;;;5074782;28;20290;-68
2022/10/31 07:30:57;;;;;;;17.87;9.40;;;10.80;99.90;;;;;;5075825;28;20212;-68
2022/10/31 07:33:25;;;;;;;16.83;10.80;;;10.90;99.90;;;;;;5075661;28;20265;-73
2022/10/31 07:35:51;;;;;;;17.93;10.20;;;10.90;99.90;;;;;;5074204;28;20205;-68
2022/10/31 07:38:17;;;;;;;17.63;9.95;;;10.90;99.90;;;;;;5075702;28;20185;-68
2022/10/31 07:40:43;;;;;;;16.73;10.03;;;10.90;99.90;;;;;;5075769;28;20170;-68
2022/10/31 07:43:11;;;;;;;20.13;10.27;;;11.00;99.90;;;;;;5075587;28;20185;-68
2022/10/31 07:45:36;;;;;;;16.70;9.80;;;11.10;99.90;;;;;;5075275;28;20221;-68
2022/10/31 07:48:02;;;;;;;15.38;10.18;;;11.10;99.90;;;;;;5075295;28;20174;-68
2022/10/31 07:50:30;;;;;;;17.70;10.30;;;11.20;99.90;;;;;;5074261;28;20178;-68
2022/10/31 07:53:04;;;;;;;17.20;11.07;;;11.30;99.90;;;;;;5075452;28;20261;-69
2022/10/31 07:55:30;;;;;;;15.52;9.70;;;11.40;99.90;;;;;;5073578;28;20202;-69
2022/10/31 07:58:04;;;;;;;21.08;11.07;;;11.50;99.90;;;;;;5075908;28;20190;-68
2022/10/31 08:00:30;;;;;;;21.98;11.43;;;11.50;99.90;;;;;;5075614;28;20215;-68
2022/10/31 08:03:01;;;;;;;16.60;11.18;;;11.60;99.90;;;;;;5075192;28;20190;-68
2022/10/31 08:05:27;;;;;;;21.15;11.40;;;11.60;99.90;;;;;;5073994;28;20221;-68
2022/10/31 08:07:52;;;;;;;20.75;12.10;;;11.70;99.90;;;;;;5075319;28;20252;-68
2022/10/31 08:10:18;;;;;;;18.33;10.77;;;11.70;99.90;;;;;;5073935;28;20228;-68
2022/10/31 08:12:44;;;;;;;22.80;11.40;;;11.80;99.90;;;;;;5075018;28;20538;-68
2022/10/31 08:15:10;;;;;;;21.05;12.70;;;11.80;99.90;;;;;;5074910;28;20565;-68
2022/10/31 08:17:36;;;;;;;20.88;11.45;;;11.90;99.90;;;;;;5075234;28;20302;-68
2022/10/31 08:20:04;;;;;;;18.35;12.80;;;11.90;99.90;;;;;;5074839;28;20174;-68
2022/10/31 08:22:29;;;;;;;22.38;12.88;;;12.00;99.90;;;;;;5075249;28;20181;-68
2022/10/31 08:24:55;;;;;;;19.55;13.00;;;11.90;99.90;;;;;;5074670;28;20197;-68
2022/10/31 08:27:21;;;;;;;19.52;12.65;;;12.00;99.90;;;;;;5073493;28;20205;-68
2022/10/31 08:29:46;;;;;;;24.67;14.73;;;12.10;99.90;;;;;;5073382;28;20178;-68
2022/10/31 08:32:13;;;;;;;19.48;12.35;;;12.10;99.90;;;;;;5074612;28;20224;-68
2022/10/31 08:34:38;;;;;;;24.35;12.63;;;12.10;99.90;;;;;;5074649;28;20166;-68
2022/10/31 08:37:04;;;;;;;25.05;14.05;;;12.20;99.90;;;;;;5075267;28;20701;-68
2022/10/31 08:39:30;;;;;;;21.13;13.48;;;12.20;99.90;;;;;;5074486;28;20253;-68
2022/10/31 08:41:55;;;;;;;21.38;13.63;;;12.30;99.90;;;;;;5074545;28;20195;-68
2022/10/31 08:44:21;;;;;;;15.35;11.85;;;12.40;99.90;;;;;;5074279;28;20213;-68
2022/10/31 08:46:47;;;;;;;20.00;12.40;;;12.40;99.90;;;;;;5074464;28;20263;-68
2022/10/31 08:49:13;;;;;;;19.15;11.65;;;12.60;99.90;;;;;;5074276;28;20665;-68
2022/10/31 08:51:38;;;;;;;18.15;11.35;;;12.70;99.90;;;;;;5074297;28;20174;-68
2022/10/31 08:54:04;;;;;;;16.00;11.68;;;12.80;99.90;;;;;;5074429;28;20178;-68
2022/10/31 08:56:30;;;;;;;19.42;12.23;;;12.90;99.90;;;;;;5074227;28;20185;-68
2022/10/31 08:58:56;;;;;;;21.15;12.35;;;13.00;99.90;;;;;;5074471;28;20582;-68
2022/10/31 09:01:21;;;;;;;19.88;11.98;;;13.10;99.90;;;;;;5072808;28;20181;-68
2022/10/31 09:03:47;;;;;;;18.38;11.93;;;13.20;99.90;;;;;;5073918;28;20178;-68
2022/10/31 09:06:13;;;;;;;19.85;13.02;;;13.30;99.90;;;;;;5073481;28;20224;-68
2022/10/31 09:08:38;;;;;;;18.13;12.18;;;13.40;99.90;;;;;;5073600;28;20634;-68
2022/10/31 09:11:06;;;;;;;16.92;11.32;;;13.50;99.90;;;;;;5073945;28;20169;-68
2022/10/31 09:13:32;;;;;;;22.13;12.80;;;13.50;99.90;;;;;;5074149;28;20199;-68
2022/10/31 09:15:58;;;;;;;20.00;11.15;;;13.50;99.90;;;;;;5074047;28;20679;-68
2022/10/31 09:18:24;;;;;;;21.42;10.90;;;13.60;99.90;;;;;;5073840;28;20257;-68
2022/10/31 09:20:50;;;;;;;20.70;10.98;;;13.70;99.90;;;;;;5072415;28;20170;-68
2022/10/31 09:23:22;;;;;;;15.75;11.45;;;13.70;99.90;;;;;;5074133;28;20181;-69
2022/10/31 09:25:50;;;;;;;17.10;10.88;;;13.80;99.90;;;;;;5073784;28;20709;-68
2022/10/31 09:28:19;;;;;;;17.83;11.52;;;13.80;99.90;;;;;;5073729;28;20632;-68
2022/10/31 09:30:52;;;;;;;16.10;10.43;;;13.90;99.90;;;;;;5073902;28;20173;-68
2022/10/31 09:33:18;;;;;;;17.25;11.10;;;13.90;99.90;;;;;;5072246;28;20634;-68
2022/10/31 09:35:44;;;;;;;21.63;11.88;;;13.90;99.90;;;;;;5072299;28;20207;-68
2022/10/31 09:38:14;;;;;;;15.90;10.15;;;14.00;99.90;;;;;;5073723;28;20511;-68
2022/10/31 09:40:44;;;;;;;19.63;11.25;;;14.00;99.90;;;;;;5072211;28;20190;-68
2022/10/31 09:43:34;;;;;;;19.48;11.68;;;14.10;99.90;;;;;;5073996;28;20269;-68
2022/10/31 09:46:27;;;;;;;20.92;11.00;;;14.20;99.90;;;;;;5073255;28;20209;-68
2022/10/31 09:49:14;;;;;;;24.27;12.07;;;14.30;99.90;;;;;;5073398;28;20706;-68
2022/10/31 09:51:53;;;;;;;23.52;13.10;;;14.30;99.90;;;;;;5072072;28;20178;-68
2022/10/31 09:54:27;;;;;;;25.15;13.10;;;14.30;99.90;;;;;;5073727;28;20158;-68
2022/10/31 09:56:53;;;;;;;18.88;11.30;;;14.20;99.90;;;;;;5073337;28;20162;-68
2022/10/31 09:59:37;;;;;;;21.77;12.45;;;14.30;99.90;;;;;;5074296;28;20543;-72
2022/10/31 10:02:12;;;;;;;26.83;13.30;;;14.30;99.90;;;;;;5074701;28;20170;-72
2022/10/31 10:04:41;;;;;;;27.17;14.18;;;14.40;99.90;;;;;;5073819;28;20165;-72
2022/10/31 10:07:17;;;;;;;24.38;12.70;;;14.40;99.90;;;;;;5072967;28;20209;-72
2022/10/31 10:09:44;;;;;;;23.55;13.07;;;14.50;99.90;;;;;;5074226;28;20166;-71
2022/10/31 10:12:34;;;;;;;23.10;12.00;;;14.50;99.90;;;;;;5072154;28;20224;-71
2022/10/31 10:15:21;;;;;;;23.58;13.77;;;14.60;99.90;;;;;;5074794;28;20190;-72
2022/10/31 10:18:07;;;;;;;26.92;13.20;;;14.60;99.90;;;;;;5074919;28;20586;-69
2022/10/31 10:21:01;;;;;;;21.75;13.38;;;14.70;99.90;;;;;;5077110;28;20185;-68
2022/10/31 10:24:05;;;;;;;24.02;13.02;;;14.70;99.90;;;;;;5077359;28;20203;-68
2022/10/31 10:26:37;;;;;;;23.48;13.80;;;14.80;99.90;;;;;;5057895;28;20208;-68
2022/10/31 10:29:28;;;;;;;21.90;12.57;;;14.90;99.90;;;;;;5076887;28;20231;-69
2022/10/31 10:31:57;;;;;;;20.17;12.50;;;14.90;99.90;;;;;;5076969;28;20638;-68
2022/10/31 10:34:26;;;;;;;24.75;12.43;;;15.00;99.90;;;;;;5076906;28;20615;-68
2022/10/31 10:36:57;;;;;;;23.35;12.55;;;15.10;99.90;;;;;;5076721;28;20580;-68
2022/10/31 10:39:46;;;;;;;18.48;11.77;;;15.10;99.90;;;;;;5077033;28;20212;-69
2022/10/31 10:47:51;;;;;;;22.63;11.77;;;15.30;99.90;;;;;;5076667;28;20177;-69
2022/10/31 10:50:25;;;;;;;20.95;12.20;;;15.40;99.90;;;;;;5076603;28;20158;-69
2022/10/31 10:53:31;;;;;;;20.88;12.30;;;15.40;99.90;;;;;;5076832;28;20246;-69
2022/10/31 10:56:15;;;;;;;21.05;13.20;;;15.50;99.90;;;;;;5075895;28;20308;-68
2022/10/31 10:58:42;;;;;;;21.98;13.85;;;15.60;99.90;;;;;;5076750;28;20168;-68
2022/10/31 11:01:15;;;;;;;25.30;12.45;;;15.80;99.90;;;;;;5076420;28;20185;-68
2022/10/31 11:03:41;;;;;;;25.95;12.75;;;15.90;99.90;;;;;;5076729;28;20173;-69
2022/10/31 11:06:25;;;;;;;21.50;11.55;;;16.10;99.90;;;;;;5076799;28;20233;-69
2022/10/31 11:08:52;;;;;;;23.48;12.68;;;16.40;99.90;;;;;;5076872;28;20154;-69
2022/10/31 11:11:30;;;;;;;21.67;11.50;;;16.60;99.90;;;;;;5075128;28;20174;-69
2022/10/31 11:14:13;;;;;;;21.45;12.57;;;16.90;99.90;;;;;;5074966;28;20161;-69
2022/10/31 11:16:43;;;;;;;19.30;10.85;;;17.20;99.90;;;;;;5074875;28;20201;-69
2022/10/31 11:19:20;;;;;;;19.13;11.45;;;17.60;99.90;;;;;;5076465;28;20166;-69
2022/10/31 11:21:47;;;;;;;26.90;11.93;;;17.90;99.90;;;;;;5074735;28;20181;-69
2022/10/31 11:24:19;;;;;;;21.73;10.65;;;18.20;99.90;;;;;;5075963;28;20186;-69
2022/10/31 11:26:47;;;;;;;20.50;10.70;;;18.50;99.90;;;;;;5075916;28;20694;-69
2022/10/31 11:29:24;;;;;;;18.65;11.30;;;18.70;99.90;;;;;;5075532;28;20174;-69
2022/10/31 11:31:53;;;;;;;19.05;11.27;;;18.80;99.90;;;;;;5075779;28;20150;-69
2022/10/31 11:34:29;;;;;;;18.48;10.00;;;18.80;99.90;;;;;;5075755;28;20177;-69
2022/10/31 11:37:16;;;;;;;18.17;10.90;;;18.90;99.90;;;;;;5076072;28;20237;-69
2022/10/31 11:39:52;;;;;;;20.40;10.30;;;19.00;99.90;;;;;;5074891;28;20174;-69
2022/10/31 11:42:20;;;;;;;20.70;10.43;;;19.10;99.90;;;;;;5074877;28;20217;-70
2022/10/31 11:44:46;;;;;;;20.90;11.38;;;19.10;99.90;;;;;;5075998;28;20216;-69
2022/10/31 11:47:16;;;;;;;20.05;11.68;;;19.10;99.90;;;;;;5075773;28;20674;-69
2022/10/31 11:49:49;;;;;;;25.48;10.70;;;18.90;99.90;;;;;;5075435;28;20170;-69
2022/10/31 11:52:19;;;;;;;28.05;13.23;;;18.90;99.90;;;;;;5075775;28;20150;-69
2022/10/31 11:55:04;;;;;;;21.60;11.35;;;18.50;99.90;;;;;;5076075;28;20185;-69
2022/10/31 11:57:31;;;;;;;21.88;11.05;;;18.20;99.90;;;;;;5075887;28;20196;-69
2022/10/31 12:00:00;;;;;;;22.75;12.23;;;18.20;99.90;;;;;;5074448;28;20540;-69
2022/10/31 12:02:27;;;;;;;18.45;11.13;;;18.10;99.90;;;;;;5076150;28;20234;-69
2022/10/31 12:05:07;;;;;;;19.50;11.93;;;18.10;99.90;;;;;;5074176;28;20201;-69
2022/10/31 12:07:33;;;;;;;25.05;12.20;;;18.10;99.90;;;;;;5075634;28;20529;-69
2022/10/31 12:09:58;;;;;;;21.83;12.20;;;18.00;99.90;;;;;;5075802;28;20160;-69
2022/10/31 12:12:52;;;;;;;27.55;13.00;;;18.00;99.90;;;;;;5073855;28;20177;-69
2022/10/31 12:15:30;;;;;;;24.02;13.30;;;18.10;99.90;;;;;;5075239;28;20194;-69
2022/10/31 12:18:04;;;;;;;19.23;11.07;;;18.20;99.90;;;;;;5074005;28;20184;-69
2022/10/31 12:20:45;;;;;;;22.50;11.63;;;18.40;99.90;;;;;;5075611;28;20158;-70
2022/10/31 12:23:48;;;;;;;24.02;12.40;;;18.60;99.90;;;;;;5075707;28;20172;-66
2022/10/31 12:26:27;;;;;;;21.30;11.43;;;18.70;99.90;;;;;;5074680;28;20255;-66
2022/10/31 12:29:14;;;;;;;17.88;11.20;;;18.80;99.90;;;;;;5073767;28;20256;-69
2022/10/31 12:31:58;;;;;;;18.90;10.38;;;18.80;99.90;;;;;;5073719;28;20212;-69
2022/10/31 12:34:30;;;;;;;17.58;10.65;;;18.80;99.90;;;;;;5074859;28;20150;-69
2022/10/31 12:37:04;;;;;;;20.02;10.38;;;18.70;99.90;;;;;;5074651;28;20169;-69
2022/10/31 12:39:42;;;;;;;20.42;11.68;;;18.80;99.90;;;;;;5074511;28;20161;-69
2022/10/31 12:42:14;;;;;;;15.18;9.52;;;18.80;99.90;;;;;;5074474;28;20183;-69
2022/10/31 12:44:55;;;;;;;18.50;10.70;;;18.90;99.90;;;;;;5074310;28;20228;-69
2022/10/31 12:47:52;;;;;;;18.80;9.02;;;19.10;99.90;;;;;;5074408;28;20193;-69
2022/10/31 12:50:53;;;;;;;18.48;9.32;;;19.30;99.90;;;;;;5073722;28;20591;-69
2022/10/31 12:53:28;;;;;;;15.40;9.07;;;19.50;99.90;;;;;;5073938;28;20189;-69
2022/10/31 12:56:00;;;;;;;16.45;8.95;;;19.70;99.90;;;;;;5074173;28;20669;-69